Time;durP1;ratioP1;P1;durP2;ratioP2;P2;SDS_P1;SDS_P2;PMS_P1;PMS_P2;Temp;Humidity;BMP_temperature;BMP_pressure;BME280_temperature;BME280_humidity;BME280_pressure;Samples;Min_cycle;Max_cycle;Signal;HPM_P1;HPM_P2
2021/07/08 00:02:01;;;;;;;5.20;3.80;;;;;;;22.31;64.14;100493.75;153840;1101;103136;-70
2021/07/08 00:05:11;;;;;;;3.97;3.23;;;;;;;22.19;63.99;100481.91;153840;1101;103179;-70
2021/07/08 00:08:16;;;;;;;7.93;4.20;;;;;;;22.29;64.40;100495.86;153834;1096;103295;-69
2021/07/08 00:11:21;;;;;;;5.38;4.10;;;;;;;22.26;64.24;100493.58;153833;1101;103142;-69
2021/07/08 00:14:26;;;;;;;4.50;3.50;;;;;;;22.25;64.35;100490.04;153813;1101;103195;-70
2021/07/08 00:17:31;;;;;;;4.87;3.60;;;;;;;22.23;64.25;100483.97;153769;1101;103154;-69
2021/07/08 00:20:38;;;;;;;4.03;3.37;;;;;;;22.31;64.20;100488.31;153842;1096;103227;-68
2021/07/08 00:23:43;;;;;;;7.50;3.83;;;;;;;22.26;64.27;100499.84;153876;1101;103288;-69
2021/07/08 00:26:48;;;;;;;5.90;3.93;;;;;;;22.27;64.61;100501.52;153808;1096;103560;-70
2021/07/08 00:29:53;;;;;;;6.00;4.17;;;;;;;22.27;64.48;100504.23;153836;1101;103211;-71
2021/07/08 00:32:58;;;;;;;7.53;4.23;;;;;;;22.28;64.67;100505.88;153800;1101;103222;-69
2021/07/08 00:36:04;;;;;;;5.28;4.10;;;;;;;22.20;64.56;100517.02;153812;1101;103139;-68
2021/07/08 00:39:09;;;;;;;6.83;3.85;;;;;;;22.16;64.82;100516.63;153815;1101;103237;-69
2021/07/08 00:42:14;;;;;;;3.55;3.20;;;;;;;22.22;64.82;100512.19;153813;1101;103163;-70
2021/07/08 00:45:21;;;;;;;5.85;3.90;;;;;;;22.28;64.87;100508.59;153780;1101;103172;-69
2021/07/08 00:48:26;;;;;;;5.43;3.67;;;;;;;22.14;64.85;100512.48;153802;1101;103135;-69
2021/07/08 00:51:32;;;;;;;4.50;4.10;;;;;;;22.11;66.64;100510.20;153770;1095;103146;-70
2021/07/08 00:54:37;;;;;;;5.55;3.88;;;;;;;21.88;65.19;100513.53;153859;1096;103474;-68
2021/07/08 00:57:52;;;;;;;5.87;4.67;;;;;;;21.85;65.46;100508.56;153868;1101;103136;-69
2021/07/08 01:00:57;;;;;;;9.90;4.88;;;;;;;21.79;65.46;100504.84;153808;1096;103233;-69
2021/07/08 01:04:04;;;;;;;6.83;4.53;;;;;;;21.84;65.40;100502.27;153845;1101;103104;-69
2021/07/08 01:07:09;;;;;;;5.37;4.20;;;;;;;21.77;65.46;100498.80;153830;1096;103224;-70
2021/07/08 01:10:16;;;;;;;5.38;4.88;;;;;;;21.67;65.58;100491.14;153862;1101;103193;-70
2021/07/08 01:13:22;;;;;;;7.98;6.43;;;;;;;21.57;66.38;100496.21;153825;1101;103227;-70
2021/07/08 01:16:28;;;;;;;9.25;6.88;;;;;;;21.48;66.34;100492.95;153894;1096;103221;-70
2021/07/08 01:19:34;;;;;;;9.47;6.63;;;;;;;21.34;65.95;100499.47;153854;1096;103573;-71
2021/07/08 01:22:41;;;;;;;8.78;6.43;;;;;;;21.21;66.47;100496.83;153842;1101;103145;-70
2021/07/08 01:25:46;;;;;;;8.50;6.10;;;;;;;21.11;66.71;100492.72;153871;1101;103220;-70
2021/07/08 01:28:53;;;;;;;7.70;5.78;;;;;;;21.11;66.61;100492.72;153806;1101;103235;-71
2021/07/08 01:31:58;;;;;;;9.25;7.20;;;;;;;21.11;66.85;100492.72;153837;1096;103158;-70
2021/07/08 01:35:05;;;;;;;8.95;6.48;;;;;;;20.99;66.86;100503.40;153825;1101;103113;-70
2021/07/08 01:38:10;;;;;;;8.78;6.98;;;;;;;20.97;67.30;100500.07;153834;1101;103174;-70
2021/07/08 01:41:15;;;;;;;11.13;7.13;;;;;;;20.89;67.41;100494.08;153829;1101;103259;-70
2021/07/08 01:44:20;;;;;;;8.67;6.50;;;;;;;20.82;67.86;100501.39;153822;1101;103155;-68
2021/07/08 01:47:25;;;;;;;5.80;4.93;;;;;;;20.82;67.51;100494.09;153822;1101;103233;-68
2021/07/08 01:50:30;;;;;;;7.23;5.98;;;;;;;20.92;67.61;100499.91;153827;1101;103147;-68
2021/07/08 01:53:35;;;;;;;8.50;7.18;;;;;;;20.94;67.87;100507.83;153822;1101;103473;-69
2021/07/08 01:56:41;;;;;;;7.65;6.63;;;;;;;20.86;68.60;100499.91;153834;1096;103224;-67
2021/07/08 01:59:46;;;;;;;7.40;6.40;;;;;;;20.75;68.16;100504.97;153897;1101;103134;-72
2021/07/08 02:02:52;;;;;;;8.23;6.77;;;;;;;20.79;68.28;100500.78;153936;1101;103240;-72
2021/07/08 02:05:57;;;;;;;8.18;7.38;;;;;;;20.90;68.29;100517.42;153947;1101;103285;-71
2021/07/08 02:09:02;;;;;;;9.08;8.05;;;;;;;20.95;69.15;100510.30;153956;1096;103134;-71
2021/07/08 02:12:10;;;;;;;10.35;8.60;;;;;;;20.96;68.47;100522.02;153956;1101;103214;-70
2021/07/08 02:15:16;;;;;;;10.15;8.55;;;;;;;20.92;68.43;100520.75;153876;1101;103179;-71
2021/07/08 02:18:21;;;;;;;11.37;8.53;;;;;;;20.93;68.67;100520.54;153832;1096;103233;-72
2021/07/08 02:21:26;;;;;;;11.17;8.70;;;;;;;20.97;68.49;100524.48;153968;1101;104003;-71
2021/07/08 02:24:32;;;;;;;11.50;10.30;;;;;;;20.95;69.00;100531.19;154028;1101;103256;-68
2021/07/08 02:27:37;;;;;;;14.38;11.00;;;;;;;20.91;69.08;100535.38;153820;1101;103261;-74
2021/07/08 02:30:42;;;;;;;12.58;10.18;;;;;;;20.91;70.25;100540.80;154067;1101;103237;-73
2021/07/08 02:33:47;;;;;;;10.70;9.60;;;;;;;20.90;69.57;100544.55;153981;1101;103227;-70
2021/07/08 02:36:51;;;;;;;9.95;8.78;;;;;;;;;;153862;1096;103247;-72
2021/07/08 02:39:56;;;;;;;12.53;10.00;;;;;;;21.01;69.60;100549.31;153887;1095;103054;-71
2021/07/08 02:43:02;;;;;;;11.37;10.17;;;;;;;21.03;69.29;100549.09;153983;1101;103307;-72
2021/07/08 02:46:08;;;;;;;12.90;10.05;;;;;;;21.09;69.08;100550.95;153986;1101;103240;-71
2021/07/08 02:49:13;;;;;;;9.43;8.43;;;;;;;21.15;69.14;100559.08;153829;1096;103129;-70
2021/07/08 02:52:18;;;;;;;11.25;8.88;;;;;;;21.24;69.34;100562.36;153852;1101;103161;-70
2021/07/08 02:55:23;;;;;;;10.85;9.55;;;;;;;21.27;69.11;100555.69;153939;1096;103233;-72
2021/07/08 02:58:28;;;;;;;11.48;9.80;;;;;;;21.30;69.13;100561.48;153934;1101;103310;-72
2021/07/08 03:01:33;;;;;;;12.23;10.97;;;;;;;21.36;69.09;100560.65;153988;1096;103156;-71
2021/07/08 03:04:38;;;;;;;12.78;11.23;;;;;;;21.31;68.97;100555.03;153843;1101;103140;-72
2021/07/08 03:07:44;;;;;;;13.25;11.35;;;;;;;21.30;69.36;100557.95;153841;1096;103249;-71
2021/07/08 03:10:49;;;;;;;12.95;11.55;;;;;;;21.27;70.20;100561.12;154099;1101;103103;-71
2021/07/08 03:13:54;;;;;;;13.03;11.63;;;;;;;21.30;69.71;100568.80;154158;1101;103239;-71
2021/07/08 03:16:59;;;;;;;16.40;12.77;;;;;;;21.20;70.53;100561.13;154099;1101;103227;-72
2021/07/08 03:20:10;;;;;;;13.15;11.75;;;;;;;21.12;70.00;100564.09;154033;1101;103662;-69
2021/07/08 03:23:14;;;;;;;;;;;;;;;21.15;69.95;100567.22;153865;1101;103493;-69
2021/07/08 03:26:19;;;;;;;11.05;9.50;;;;;;;21.23;69.97;100563.42;153765;1096;103203;-70
2021/07/08 03:29:24;;;;;;;14.10;11.57;;;;;;;21.33;69.71;100562.96;153745;1101;103273;-70
2021/07/08 03:32:29;;;;;;;15.78;11.60;;;;;;;21.35;70.00;100563.58;153805;1101;103135;-70
2021/07/08 03:35:34;;;;;;;14.40;12.90;;;;;;;21.33;70.58;100563.78;153783;1101;103141;-71
2021/07/08 03:38:39;;;;;;;15.20;12.15;;;;;;;21.31;69.99;100559.63;153786;1101;103203;-71
2021/07/08 03:41:45;;;;;;;13.70;11.85;;;;;;;21.37;70.25;100559.58;153924;1096;103192;-72
2021/07/08 03:44:51;;;;;;;12.55;11.03;;;;;;;21.40;70.18;100569.16;153932;1096;103299;-71
2021/07/08 03:47:56;;;;;;;13.45;11.90;;;;;;;21.37;70.10;100566.91;154011;1101;103119;-71
2021/07/08 03:51:01;;;;;;;15.00;12.45;;;;;;;21.44;70.47;100566.88;154006;1101;103225;-72
2021/07/08 03:54:07;;;;;;;16.10;12.80;;;;;;;21.36;70.11;100565.22;153808;1101;103134;-71
2021/07/08 03:57:12;;;;;;;12.73;11.23;;;;;;;21.27;70.26;100571.97;154073;1101;103197;-72
2021/07/08 04:00:19;;;;;;;14.53;11.90;;;;;;;21.34;70.39;100567.32;153939;1101;103267;-72
2021/07/08 04:03:24;;;;;;;13.33;11.70;;;;;;;21.36;70.55;100566.08;154013;1101;103203;-72
2021/07/08 04:06:29;;;;;;;14.10;11.33;;;;;;;21.38;70.26;100568.55;153948;1095;103202;-72
2021/07/08 04:09:34;;;;;;;16.63;13.17;;;;;;;21.39;70.74;100564.80;153972;1096;103144;-72
2021/07/08 04:12:39;;;;;;;14.73;13.00;;;;;;;21.27;71.23;100561.12;153993;1096;103121;-72
2021/07/08 04:15:46;;;;;;;16.45;12.60;;;;;;;21.21;71.47;100567.38;153941;1096;103247;-72
2021/07/08 04:18:52;;;;;;;14.55;12.40;;;;;;;21.24;72.57;100572.39;154009;1101;103311;-72
2021/07/08 04:21:57;;;;;;;15.63;12.77;;;;;;;21.24;72.04;100567.78;153825;1095;103113;-73
2021/07/08 04:25:02;;;;;;;14.33;12.83;;;;;;;21.20;71.54;100569.27;153815;1101;103160;-72
2021/07/08 04:28:08;;;;;;;16.63;13.73;;;;;;;21.15;72.15;100574.50;154004;1101;103119;-71
2021/07/08 04:31:16;;;;;;;14.63;11.13;;;;;;;21.23;71.28;100579.70;153926;1101;103174;-72
2021/07/08 04:34:21;;;;;;;11.90;10.70;;;;;;;21.34;71.63;100578.18;154007;1101;103132;-72
2021/07/08 04:37:26;;;;;;;12.07;10.87;;;;;;;21.47;71.10;100583.58;153942;1101;103198;-72
2021/07/08 04:40:31;;;;;;;13.07;11.63;;;;;;;21.59;70.98;100596.47;153808;1101;103218;-72
2021/07/08 04:43:36;;;;;;;14.08;12.63;;;;;;;21.60;71.24;100595.44;153939;1096;103217;-72
2021/07/08 04:46:41;;;;;;;14.70;12.35;;;;;;;21.51;71.35;100600.27;153978;1101;103183;-72
2021/07/08 04:49:46;;;;;;;11.45;10.25;;;;;;;21.55;71.39;100601.50;154023;1101;103129;-72
2021/07/08 04:52:51;;;;;;;11.30;10.20;;;;;;;21.64;71.10;100608.34;153813;1096;103215;-70
2021/07/08 04:55:57;;;;;;;11.60;10.13;;;;;;;21.77;71.05;100610.16;153858;1095;103139;-72
2021/07/08 04:59:02;;;;;;;11.78;10.50;;;;;;;21.92;70.91;100613.41;153829;1101;103220;-72
2021/07/08 05:02:08;;;;;;;12.50;11.17;;;;;;;21.92;70.77;100618.84;153791;1096;103256;-71
2021/07/08 05:05:15;;;;;;;12.77;10.50;;;;;;;21.93;70.86;100615.05;154080;1096;103495;-71
2021/07/08 05:08:20;;;;;;;14.95;10.13;;;;;;;21.96;70.73;100620.06;154030;1096;103190;-72
2021/07/08 05:11:25;;;;;;;11.15;10.05;;;;;;;22.00;70.74;100620.46;153958;1101;103122;-73
2021/07/08 05:14:30;;;;;;;13.00;11.18;;;;;;;22.05;70.92;100622.51;153969;1101;103198;-71
2021/07/08 05:17:36;;;;;;;13.93;12.43;;;;;;;21.99;70.94;100623.39;154030;1101;103281;-72
2021/07/08 05:20:41;;;;;;;13.05;11.75;;;;;;;21.90;71.14;100626.38;153977;1101;103198;-69
2021/07/08 05:23:46;;;;;;;13.03;11.53;;;;;;;21.97;71.08;100620.89;153974;1096;103202;-70
2021/07/08 05:26:52;;;;;;;13.17;11.80;;;;;;;22.05;71.47;100619.79;153910;1101;103201;-71
2021/07/08 05:29:59;;;;;;;12.83;11.53;;;;;;;22.04;70.93;100615.42;153903;1096;103136;-73
2021/07/08 05:33:04;;;;;;;14.20;12.78;;;;;;;22.13;71.00;100617.66;153969;1101;103523;-72
2021/07/08 05:36:09;;;;;;;14.43;13.00;;;;;;;22.14;70.90;100623.91;153937;1101;103131;-73
2021/07/08 05:39:15;;;;;;;17.05;14.73;;;;;;;22.22;70.60;100618.20;153929;1095;103607;-73
2021/07/08 05:42:20;;;;;;;16.17;13.70;;;;;;;22.25;70.83;100622.38;154027;1094;103134;-73
2021/07/08 05:45:25;;;;;;;17.08;12.85;;;;;;;22.13;70.89;100628.52;154037;1101;103230;-71
2021/07/08 05:48:30;;;;;;;14.58;11.05;;;;;;;22.15;70.92;100633.72;153860;1101;103172;-73
2021/07/08 05:51:35;;;;;;;14.95;12.55;;;;;;;22.28;70.89;100628.21;153959;1101;103117;-73
2021/07/08 05:54:40;;;;;;;16.33;13.20;;;;;;;22.34;70.81;100635.50;153980;1101;103198;-73
2021/07/08 05:57:48;;;;;;;16.40;12.93;;;;;;;22.47;70.77;100634.54;153967;1101;103224;-73
2021/07/08 06:00:53;;;;;;;15.93;12.65;;;;;;;22.56;70.59;100637.83;153954;1101;103135;-73
2021/07/08 06:03:58;;;;;;;17.10;13.48;;;;;;;22.51;70.50;100643.91;154016;1101;103267;-72
2021/07/08 06:07:03;;;;;;;16.33;12.65;;;;;;;22.49;71.01;100646.03;153945;1101;103127;-73
2021/07/08 06:10:10;;;;;;;16.40;12.57;;;;;;;22.45;70.51;100643.98;153959;1101;103120;-72
2021/07/08 06:13:15;;;;;;;17.35;13.43;;;;;;;22.54;70.48;100638.05;153983;1101;103199;-72
2021/07/08 06:16:20;;;;;;;18.27;14.97;;;;;;;22.48;70.65;100649.81;154025;1094;103196;-72
2021/07/08 06:19:25;;;;;;;16.00;13.30;;;;;;;22.45;70.70;100646.70;153996;1097;103205;-72
2021/07/08 06:22:30;;;;;;;18.20;13.50;;;;;;;22.48;70.90;100655.25;154003;1101;103169;-73
2021/07/08 06:25:36;;;;;;;15.87;12.13;;;;;;;22.50;70.67;100655.04;153964;1096;103122;-73
2021/07/08 06:28:42;;;;;;;18.37;13.43;;;;;;;22.60;70.58;100665.41;153967;1101;103131;-72
2021/07/08 06:31:47;;;;;;;16.65;13.95;;;;;;;22.47;70.71;100671.78;154017;1097;103164;-72
2021/07/08 06:34:52;;;;;;;15.53;13.03;;;;;;;22.47;70.76;100671.78;153955;1101;103263;-72
2021/07/08 06:37:57;;;;;;;15.65;13.08;;;;;;;22.57;70.75;100663.95;154007;1101;103233;-72
2021/07/08 06:41:02;;;;;;;18.45;14.03;;;;;;;22.57;70.51;100668.56;153974;1101;103202;-72
2021/07/08 06:44:07;;;;;;;16.25;13.68;;;;;;;22.55;70.77;100682.38;153903;1101;103120;-72
2021/07/08 06:47:14;;;;;;;19.85;13.93;;;;;;;22.50;70.73;100663.20;154067;1096;103510;-70
2021/07/08 06:50:20;;;;;;;14.83;12.95;;;;;;;22.60;70.74;100677.12;153890;1096;103398;-72
2021/07/08 06:53:25;;;;;;;15.88;13.13;;;;;;;22.65;70.64;100674.58;154116;1101;103476;-72
2021/07/08 06:56:30;;;;;;;14.37;11.83;;;;;;;22.69;70.55;100681.23;154060;1101;103250;-72
2021/07/08 06:59:35;;;;;;;13.73;11.55;;;;;;;22.77;70.41;100690.14;154032;1097;103105;-72
2021/07/08 07:02:40;;;;;;;13.80;10.75;;;;;;;22.85;70.11;100692.59;153936;1101;103173;-72
2021/07/08 07:05:45;;;;;;;16.70;12.93;;;;;;;22.71;70.24;100692.72;153974;1097;103287;-71
2021/07/08 07:08:50;;;;;;;14.78;12.73;;;;;;;22.54;70.68;100697.88;153997;1095;103117;-72
2021/07/08 07:11:55;;;;;;;15.63;12.70;;;;;;;22.48;70.56;100692.47;153972;1101;103249;-73
2021/07/08 07:14:59;;;;;;;18.73;13.27;;;;;;;22.46;70.57;100689.14;153993;1096;103129;-72
2021/07/08 07:18:04;;;;;;;17.10;12.43;;;;;;;22.57;70.66;100691.15;153990;1101;103121;-73
2021/07/08 07:21:11;;;;;;;16.43;12.38;;;;;;;22.59;70.69;100707.25;153992;1101;103212;-71
2021/07/08 07:24:16;;;;;;;15.33;12.73;;;;;;;22.46;70.70;100697.30;154122;1097;103127;-71
2021/07/08 07:27:22;;;;;;;16.90;13.05;;;;;;;22.36;71.25;100703.23;154046;1096;103100;-71
2021/07/08 07:30:28;;;;;;;14.35;11.93;;;;;;;22.37;70.75;100695.93;154044;1095;103149;-72
2021/07/08 07:33:33;;;;;;;15.75;12.58;;;;;;;22.39;70.63;100696.53;154017;1101;103147;-72
2021/07/08 07:36:38;;;;;;;14.27;12.60;;;;;;;22.48;70.65;100696.05;153993;1101;103256;-72
2021/07/08 07:39:43;;;;;;;13.78;11.10;;;;;;;22.63;70.43;100694.87;154001;1101;103235;-72
2021/07/08 07:42:48;;;;;;;14.30;11.83;;;;;;;22.65;70.49;100688.17;153941;1101;103156;-72
2021/07/08 07:45:53;;;;;;;12.95;11.28;;;;;;;22.72;70.29;100683.48;153922;1095;103106;-72
2021/07/08 07:48:58;;;;;;;12.20;10.50;;;;;;;22.78;70.46;100680.94;153990;1101;103500;-72
2021/07/08 07:52:05;;;;;;;14.63;12.33;;;;;;;22.86;70.24;100686.91;153953;1101;103267;-72
2021/07/08 07:55:12;;;;;;;12.70;11.17;;;;;;;22.84;69.94;100674.59;153977;1101;103474;-72
2021/07/08 07:58:18;;;;;;;12.83;10.97;;;;;;;22.97;69.84;100676.36;153949;1096;103564;-71
2021/07/08 08:01:23;;;;;;;14.47;10.40;;;;;;;23.12;69.96;100671.42;153946;1096;103219;-72
2021/07/08 08:04:31;;;;;;;12.65;11.33;;;;;;;23.29;69.46;100677.11;153973;1101;103576;-72
2021/07/08 08:11:13;;;;;;;13.33;11.93;;;;;;;23.45;69.06;100687.38;153690;1100;103287;-72
2021/07/08 08:14:18;;;;;;;13.23;11.47;;;;;;;23.56;69.39;100679.48;153774;1104;103853;-72
2021/07/08 08:17:23;;;;;;;13.13;11.50;;;;;;;23.81;68.79;100673.98;153813;1095;103145;-72
2021/07/08 08:20:28;;;;;;;11.48;9.60;;;;;;;24.20;69.12;100679.91;154087;1101;103176;-71
2021/07/08 08:23:33;;;;;;;11.50;10.25;;;;;;;24.61;67.96;100673.59;153934;1101;103259;-71
2021/07/08 08:26:38;;;;;;;12.40;11.18;;;;;;;24.66;67.19;100676.45;153987;1097;103193;-71
2021/07/08 08:29:43;;;;;;;12.87;11.40;;;;;;;24.76;67.36;100677.77;153967;1101;103205;-71
2021/07/08 08:32:48;;;;;;;13.15;11.78;;;;;;;24.73;65.64;100672.78;153937;1101;103199;-72
2021/07/08 08:35:53;;;;;;;11.60;10.40;;;;;;;24.66;67.68;100668.27;153928;1101;103148;-71
2021/07/08 08:38:58;;;;;;;13.63;10.30;;;;;;;24.89;67.13;100664.71;153967;1097;103279;-71
2021/07/08 09:24:12;;;;;;;11.87;10.67;;;;;;;26.41;62.07;100653.52;154215;1090;103109;-72
2021/07/08 09:27:17;;;;;;;11.00;9.77;;;;;;;26.43;64.02;100656.02;154012;1096;103572;-72
2021/07/08 09:30:27;;;;;;;12.87;11.60;;;;;;;26.37;61.79;100657.02;154001;1101;103237;-72
2021/07/08 09:33:38;;;;;;;13.17;10.53;;;;;;;26.36;63.57;100650.69;154048;1101;103231;-73
2021/07/08 09:36:44;;;;;;;12.23;10.93;;;;;;;26.59;62.91;100654.38;153997;1101;103262;-72
2021/07/08 09:39:51;;;;;;;12.23;11.03;;;;;;;26.67;62.75;100661.34;153967;1101;103253;-72
2021/07/08 09:42:56;;;;;;;13.47;12.20;;;;;;;26.70;62.03;100649.90;153937;1101;103110;-72
2021/07/08 09:46:01;;;;;;;13.17;11.97;;;;;;;26.91;61.83;100649.11;153995;1101;103176;-72
2021/07/08 09:49:11;;;;;;;12.00;10.90;;;;;;;26.83;62.25;100649.55;153985;1101;103210;-73
2021/07/08 09:52:16;;;;;;;12.93;11.73;;;;;;;27.14;62.00;100649.97;154009;1101;103208;-72
2021/07/08 09:55:30;;;;;;;11.07;10.07;;;;;;;27.30;62.57;100645.55;153979;1101;103127;-72
2021/07/08 09:58:50;;;;;;;13.80;12.40;;;;;;;27.44;60.88;100643.23;153986;1095;103104;-73
2021/07/08 10:01:59;;;;;;;12.83;11.63;;;;;;;27.47;61.44;100640.00;153933;1101;103195;-72
2021/07/08 10:05:06;;;;;;;12.13;11.03;;;;;;;27.61;61.32;100633.02;153972;1101;103204;-72
2021/07/08 10:08:12;;;;;;;13.93;12.33;;;;;;;27.56;60.56;100636.55;154016;1101;103209;-72
2021/07/08 10:11:19;;;;;;;14.23;12.93;;;;;;;27.41;60.29;100631.70;153975;1101;103190;-72
2021/07/08 10:14:25;;;;;;;13.40;12.20;;;;;;;27.46;60.95;100641.06;153967;1096;103225;-72
2021/07/08 10:17:33;;;;;;;13.03;11.83;;;;;;;27.86;61.66;100646.17;154029;1096;103113;-72
2021/07/08 10:20:40;;;;;;;13.40;12.10;;;;;;;28.07;60.44;100647.23;153978;1101;103174;-74
2021/07/08 10:23:45;;;;;;;11.70;10.70;;;;;;;28.29;60.89;100643.57;153972;1101;103300;-72
2021/07/08 10:26:51;;;;;;;12.87;11.63;;;;;;;28.31;59.95;100646.88;153966;1101;103495;-72
2021/07/08 10:29:58;;;;;;;14.07;12.53;;;;;;;28.20;60.07;100635.01;153965;1101;103387;-72
2021/07/08 10:33:04;;;;;;;12.33;11.23;;;;;;;28.07;60.38;100628.02;153961;1101;103133;-72
2021/07/08 10:36:09;;;;;;;12.83;11.63;;;;;;;28.09;59.87;100634.08;153960;1101;103492;-73
2021/07/08 10:39:18;;;;;;;13.15;11.85;;;;;;;28.28;59.91;100648.23;153970;1101;103516;-72
2021/07/08 10:42:43;;;;;;;12.83;11.57;;;;;;;28.54;59.82;100643.82;154005;1101;103128;-74
2021/07/08 10:45:48;;;;;;;14.75;13.45;;;;;;;28.63;58.98;100638.65;153979;1101;103211;-72
2021/07/08 10:48:53;;;;;;;15.57;13.97;;;;;;;28.59;58.87;100630.11;153924;1101;103076;-72
2021/07/08 10:51:58;;;;;;;14.70;13.30;;;;;;;28.52;58.42;100637.77;153976;1101;103259;-72
2021/07/08 10:55:03;;;;;;;13.20;12.05;;;;;;;28.38;59.17;100631.84;154008;1101;103294;-73
2021/07/08 10:58:29;;;;;;;12.40;11.30;;;;;;;28.52;59.45;100626.78;154002;1101;103129;-73
2021/07/08 11:01:50;;;;;;;13.47;12.17;;;;;;;28.73;58.90;100616.73;153944;1101;103190;-72
2021/07/08 11:04:55;;;;;;;12.55;11.45;;;;;;;28.84;58.59;100616.81;153959;1101;103227;-73
2021/07/08 11:08:01;;;;;;;12.70;11.50;;;;;;;28.94;58.56;100625.92;153918;1101;103213;-72
2021/07/08 11:11:08;;;;;;;12.67;11.47;;;;;;;28.86;58.33;100620.94;153979;1101;103275;-72
2021/07/08 11:14:27;;;;;;;12.93;11.83;;;;;;;28.97;58.20;100619.09;153974;1096;103104;-73
2021/07/08 11:17:40;;;;;;;12.10;10.90;;;;;;;29.12;58.30;100612.81;153967;1101;103201;-73
2021/07/08 11:20:46;;;;;;;12.57;11.57;;;;;;;29.26;57.94;100603.02;153988;1101;103202;-73
2021/07/08 11:23:51;;;;;;;12.10;11.10;;;;;;;29.32;58.00;100599.19;154005;1101;103221;-73
2021/07/08 11:26:57;;;;;;;11.60;10.60;;;;;;;29.34;57.60;100596.18;153970;1101;103279;-71
2021/07/08 11:30:24;;;;;;;12.83;11.73;;;;;;;29.42;57.48;100605.83;153965;1096;103158;-72
2021/07/08 11:33:31;;;;;;;13.13;11.83;;;;;;;29.50;57.37;100592.36;153969;1101;103146;-71
2021/07/08 11:36:37;;;;;;;11.50;10.40;;;;;;;29.58;57.36;100596.50;153981;1096;103517;-71
2021/07/08 11:39:45;;;;;;;11.70;10.67;;;;;;;29.75;57.04;100594.39;153968;1101;103224;-72
2021/07/08 11:42:52;;;;;;;12.77;11.63;;;;;;;29.85;56.82;100598.23;154014;1096;103264;-72
2021/07/08 11:46:04;;;;;;;13.93;12.73;;;;;;;29.87;56.69;100588.63;154036;1096;103147;-71
2021/07/08 11:49:09;;;;;;;13.67;12.30;;;;;;;29.72;55.98;100577.58;153936;1096;103167;-72
2021/07/08 11:52:26;;;;;;;13.33;12.03;;;;;;;29.52;56.38;100575.59;153968;1101;103225;-72
2021/07/08 11:55:31;;;;;;;13.45;11.90;;;;;;;29.43;56.65;100579.97;153987;1101;103358;-72
2021/07/08 11:58:37;;;;;;;13.07;11.87;;;;;;;29.52;56.85;100578.34;153983;1101;103271;-72
2021/07/08 12:01:43;;;;;;;14.03;12.83;;;;;;;29.56;56.25;100563.80;154058;1101;103218;-71
2021/07/08 12:04:48;;;;;;;14.50;13.10;;;;;;;29.50;56.33;100564.05;153957;1101;103218;-72
2021/07/08 12:07:57;;;;;;;14.23;13.03;;;;;;;29.30;56.09;100559.34;153753;1101;103222;-72
2021/07/08 12:11:12;;;;;;;13.30;12.00;;;;;;;29.09;56.03;100561.16;153980;1101;103228;-72
2021/07/08 12:14:20;;;;;;;14.47;13.17;;;;;;;28.82;56.19;100553.91;153987;1101;103247;-72
2021/07/08 12:17:30;;;;;;;14.50;13.20;;;;;;;28.56;56.31;100552.94;153964;1101;103250;-71
2021/07/08 12:20:47;;;;;;;14.60;13.30;;;;;;;28.40;56.27;100551.98;154013;1096;103128;-71
2021/07/08 12:23:53;;;;;;;13.80;12.40;;;;;;;28.48;56.82;100547.92;153923;1101;103504;-72
2021/07/08 12:27:00;;;;;;;14.00;12.57;;;;;;;28.52;56.87;100546.33;154007;1101;103266;-71
2021/07/08 12:30:05;;;;;;;14.80;13.30;;;;;;;28.46;56.59;100545.44;153957;1096;103254;-71
2021/07/08 12:33:13;;;;;;;14.77;13.37;;;;;;;28.41;57.06;100537.19;154093;1096;103134;-72
2021/07/08 12:36:19;;;;;;;14.87;13.33;;;;;;;28.32;56.91;100538.77;154102;1096;103195;-71
2021/07/08 12:39:28;;;;;;;14.37;13.07;;;;;;;28.16;56.89;100535.92;154006;1101;103144;-72
2021/07/08 12:42:36;;;;;;;13.95;12.65;;;;;;;28.10;56.97;100536.98;154023;1101;103189;-71
2021/07/08 12:45:42;;;;;;;14.23;12.93;;;;;;;28.19;57.46;100523.58;153956;1096;103478;-72
2021/07/08 12:48:47;;;;;;;14.60;13.25;;;;;;;28.23;57.38;100518.40;154158;1096;103099;-71
2021/07/08 12:51:53;;;;;;;14.37;13.07;;;;;;;28.27;57.75;100517.59;153978;1096;103199;-73
2021/07/08 12:54:58;;;;;;;14.10;12.80;;;;;;;28.40;57.71;100524.55;153957;1101;103060;-71
2021/07/08 12:58:05;;;;;;;13.20;11.90;;;;;;;28.55;57.72;100519.17;153862;1101;103233;-72
2021/07/08 13:01:10;;;;;;;14.10;12.80;;;;;;;28.75;57.43;100509.38;153973;1096;103257;-72
2021/07/08 13:04:15;;;;;;;14.37;13.07;;;;;;;28.95;57.38;100519.63;154012;1101;103125;-71
2021/07/08 13:07:25;;;;;;;14.30;13.00;;;;;;;29.12;56.62;100513.89;154027;1101;103166;-72
2021/07/08 13:10:38;;;;;;;14.97;13.47;;;;;;;28.99;56.16;100493.27;154021;1101;103138;-72
2021/07/08 13:13:43;;;;;;;14.10;12.80;;;;;;;28.87;56.80;100501.75;154171;1101;103230;-72
2021/07/08 13:17:02;;;;;;;13.17;11.97;;;;;;;28.85;56.58;100501.20;153941;1101;103277;-72
2021/07/08 13:20:10;;;;;;;13.27;12.17;;;;;;;28.87;57.08;100509.14;154010;1101;103561;-71
2021/07/08 13:23:22;;;;;;;13.10;12.00;;;;;;;28.84;56.96;100507.77;153903;1101;103190;-71
2021/07/08 13:26:27;;;;;;;13.13;11.90;;;;;;;28.75;57.28;100503.88;153988;1101;103252;-72
2021/07/08 13:29:32;;;;;;;12.30;11.10;;;;;;;28.74;56.98;100502.25;153973;1096;103196;-72
2021/07/08 13:32:37;;;;;;;12.47;11.37;;;;;;;28.75;56.75;100509.38;154006;1101;103264;-71
2021/07/08 13:35:47;;;;;;;12.63;11.63;;;;;;;28.80;56.99;100503.91;153991;1096;103199;-72
2021/07/08 13:38:59;;;;;;;12.75;11.50;;;;;;;29.05;57.12;100500.42;153976;1101;103168;-71
2021/07/08 13:42:07;;;;;;;12.50;11.50;;;;;;;29.03;56.74;100491.63;153731;1101;103218;-72
2021/07/08 13:45:32;;;;;;;12.57;11.27;;;;;;;28.88;57.54;100505.31;154045;1096;103252;-71
2021/07/08 13:48:39;;;;;;;13.37;12.20;;;;;;;28.62;57.30;100515.35;153927;1101;103251;-71
2021/07/08 13:51:49;;;;;;;12.77;11.43;;;;;;;28.52;57.46;100511.48;154029;1101;103243;-72
2021/07/08 13:54:54;;;;;;;12.75;11.35;;;;;;;28.49;57.57;100514.72;153927;1096;103195;-72
2021/07/08 13:57:59;;;;;;;12.10;11.00;;;;;;;28.53;57.86;100502.14;153950;1101;103142;-72
2021/07/08 14:01:04;;;;;;;12.30;11.10;;;;;;;28.57;57.97;100500.52;153991;1101;103217;-71
2021/07/08 14:04:10;;;;;;;12.40;11.20;;;;;;;28.56;57.78;100496.13;153820;1096;103355;-72
2021/07/08 14:07:15;;;;;;;11.90;10.90;;;;;;;28.40;57.17;100491.61;153979;1101;103227;-71
2021/07/08 14:10:20;;;;;;;12.15;11.05;;;;;;;28.17;57.77;100470.89;153955;1101;103131;-72
2021/07/08 14:13:25;;;;;;;12.70;11.50;;;;;;;27.99;58.26;100472.98;153601;1104;103224;-71
2021/07/08 14:16:30;;;;;;;12.97;11.77;;;;;;;27.72;58.76;100484.00;153658;1104;103101;-72
2021/07/08 14:19:35;;;;;;;12.97;11.87;;;;;;;27.47;59.34;100494.74;153952;1101;103272;-72
2021/07/08 14:22:41;;;;;;;11.50;10.50;;;;;;;27.21;59.95;100527.31;154163;1101;103220;-72
2021/07/08 14:25:46;;;;;;;12.05;11.05;;;;;;;26.96;60.49;100575.22;154120;1101;103200;-72
2021/07/08 14:28:51;;;;;;;12.37;11.27;;;;;;;26.59;60.70;100578.56;154027;1101;103224;-72
2021/07/08 14:31:56;;;;;;;14.55;13.15;;;;;;;26.18;61.04;100557.95;154121;1096;103201;-72
2021/07/08 14:35:03;;;;;;;7.93;7.13;;;;;;;25.63;59.82;100534.84;154077;1096;103256;-71
2021/07/08 14:38:08;;;;;;;5.05;4.65;;;;;;;25.21;59.33;100524.20;154087;1101;103203;-73